sensor_id;sensor_type;location;lat;lon;timestamp;P1;durP1;ratioP1;P2;durP2;ratioP2
78205;SDS011;67480;48.920;12.880;2023-07-13T06:43:57;15.02;;;9.70;;
78205;SDS011;67480;48.920;12.880;2023-07-13T06:46:22;13.02;;;9.05;;
78205;SDS011;67480;48.920;12.880;2023-07-13T06:48:48;12.45;;;9.00;;
78205;SDS011;67480;48.920;12.880;2023-07-13T06:51:14;12.38;;;9.63;;
78205;SDS011;67480;48.920;12.880;2023-07-13T06:53:39;14.07;;;9.27;;
78205;SDS011;67480;48.920;12.880;2023-07-13T06:56:05;14.57;;;9.18;;
78205;SDS011;67480;48.920;12.880;2023-07-13T06:58:30;10.75;;;8.75;;
78205;SDS011;67480;48.920;12.880;2023-07-13T07:00:56;12.75;;;8.77;;
78205;SDS011;67480;48.920;12.880;2023-07-13T07:03:22;12.32;;;8.63;;
78205;SDS011;67480;48.920;12.880;2023-07-13T07:05:47;12.13;;;8.23;;
78205;SDS011;67480;48.920;12.880;2023-07-13T07:08:12;10.30;;;8.60;;
78205;SDS011;67480;48.920;12.880;2023-07-13T07:10:38;12.52;;;8.68;;
78205;SDS011;67480;48.920;12.880;2023-07-13T07:13:03;10.20;;;8.70;;
78205;SDS011;67480;48.920;12.880;2023-07-13T07:15:29;9.73;;;8.45;;
78205;SDS011;67480;48.920;12.880;2023-07-13T07:17:55;11.48;;;8.70;;
78205;SDS011;67480;48.920;12.880;2023-07-13T07:20:20;13.73;;;8.88;;
78205;SDS011;67480;48.920;12.880;2023-07-13T07:22:46;15.20;;;8.23;;
78205;SDS011;67480;48.920;12.880;2023-07-13T07:25:11;10.95;;;9.00;;
78205;SDS011;67480;48.920;12.880;2023-07-13T07:27:37;15.48;;;9.77;;
78205;SDS011;67480;48.920;12.880;2023-07-13T07:30:03;11.13;;;8.88;;
78205;SDS011;67480;48.920;12.880;2023-07-13T07:32:29;13.65;;;8.27;;
78205;SDS011;67480;48.920;12.880;2023-07-13T07:34:56;13.45;;;9.07;;
78205;SDS011;67480;48.920;12.880;2023-07-13T07:37:22;12.80;;;8.63;;
78205;SDS011;67480;48.920;12.880;2023-07-13T07:39:47;12.85;;;8.25;;
78205;SDS011;67480;48.920;12.880;2023-07-13T07:42:12;13.20;;;8.38;;
78205;SDS011;67480;48.920;12.880;2023-07-13T07:44:38;10.98;;;7.75;;
78205;SDS011;67480;48.920;12.880;2023-07-13T07:47:05;10.60;;;7.18;;
78205;SDS011;67480;48.920;12.880;2023-07-13T07:49:31;10.25;;;7.57;;
78205;SDS011;67480;48.920;12.880;2023-07-13T07:51:57;11.05;;;7.63;;
78205;SDS011;67480;48.920;12.880;2023-07-13T07:54:22;12.02;;;7.05;;
78205;SDS011;67480;48.920;12.880;2023-07-13T07:56:48;9.25;;;6.20;;
78205;SDS011;67480;48.920;12.880;2023-07-13T07:59:13;11.60;;;6.55;;
78205;SDS011;67480;48.920;12.880;2023-07-13T08:01:39;7.80;;;6.03;;
78205;SDS011;67480;48.920;12.880;2023-07-13T08:04:05;10.38;;;6.68;;
78205;SDS011;67480;48.920;12.880;2023-07-13T08:06:32;12.57;;;6.03;;
78205;SDS011;67480;48.920;12.880;2023-07-13T08:08:58;11.38;;;6.10;;
78205;SDS011;67480;48.920;12.880;2023-07-13T08:11:24;7.47;;;5.45;;
78205;SDS011;67480;48.920;12.880;2023-07-13T08:13:50;7.28;;;4.35;;
78205;SDS011;67480;48.920;12.880;2023-07-13T08:16:15;8.18;;;4.47;;
78205;SDS011;67480;48.920;12.880;2023-07-13T08:18:41;10.73;;;5.22;;
78205;SDS011;67480;48.920;12.880;2023-07-13T08:21:07;7.68;;;5.03;;
78205;SDS011;67480;48.920;12.880;2023-07-13T08:23:34;12.45;;;5.05;;
78205;SDS011;67480;48.920;12.880;2023-07-13T08:25:59;5.32;;;4.45;;
78205;SDS011;67480;48.920;12.880;2023-07-13T08:28:29;9.77;;;4.90;;
78205;SDS011;67480;48.920;12.880;2023-07-13T08:30:54;7.65;;;4.10;;
78205;SDS011;67480;48.920;12.880;2023-07-13T08:33:21;4.18;;;3.03;;
78205;SDS011;67480;48.920;12.880;2023-07-13T08:35:49;6.90;;;3.08;;
78205;SDS011;67480;48.920;12.880;2023-07-13T08:38:15;6.63;;;3.20;;
78205;SDS011;67480;48.920;12.880;2023-07-13T08:40:42;4.10;;;3.20;;
78205;SDS011;67480;48.920;12.880;2023-07-13T08:43:16;4.68;;;2.50;;
78205;SDS011;67480;48.920;12.880;2023-07-13T08:45:45;9.45;;;2.70;;
78205;SDS011;67480;48.920;12.880;2023-07-13T08:53:46;4.40;;;2.30;;
78205;SDS011;67480;48.920;12.880;2023-07-13T08:56:21;5.45;;;2.38;;
78205;SDS011;67480;48.920;12.880;2023-07-13T08:58:51;4.28;;;2.20;;
78205;SDS011;67480;48.920;12.880;2023-07-13T09:01:25;4.68;;;1.70;;
78205;SDS011;67480;48.920;12.880;2023-07-13T09:04:03;3.97;;;1.60;;
78205;SDS011;67480;48.920;12.880;2023-07-13T09:06:36;5.70;;;1.90;;
78205;SDS011;67480;48.920;12.880;2023-07-13T09:12:43;1.80;;;1.42;;
78205;SDS011;67480;48.920;12.880;2023-07-13T09:14:51;5.50;;;1.58;;
78205;SDS011;67480;48.920;12.880;2023-07-13T09:17:29;3.70;;;1.70;;
78205;SDS011;67480;48.920;12.880;2023-07-13T09:20:06;3.20;;;1.92;;
78205;SDS011;67480;48.920;12.880;2023-07-13T09:22:42;3.10;;;1.60;;
78205;SDS011;67480;48.920;12.880;2023-07-13T09:27:52;1.70;;;1.48;;
78205;SDS011;67480;48.920;12.880;2023-07-13T09:30:24;3.58;;;2.13;;
78205;SDS011;67480;48.920;12.880;2023-07-13T09:32:57;5.60;;;1.70;;
78205;SDS011;67480;48.920;12.880;2023-07-13T09:35:25;8.48;;;2.05;;
78205;SDS011;67480;48.920;12.880;2023-07-13T09:37:58;5.10;;;1.80;;
78205;SDS011;67480;48.920;12.880;2023-07-13T09:40:42;5.13;;;1.90;;
78205;SDS011;67480;48.920;12.880;2023-07-13T09:43:14;3.28;;;2.13;;
78205;SDS011;67480;48.920;12.880;2023-07-13T09:45:41;2.47;;;1.63;;
78205;SDS011;67480;48.920;12.880;2023-07-13T09:48:11;3.22;;;1.63;;
78205;SDS011;67480;48.920;12.880;2023-07-13T09:50:41;2.55;;;1.30;;
78205;SDS011;67480;48.920;12.880;2023-07-13T09:53:17;2.75;;;1.60;;
78205;SDS011;67480;48.920;12.880;2023-07-13T09:55:45;3.40;;;1.52;;
78205;SDS011;67480;48.920;12.880;2023-07-13T09:58:16;4.75;;;4.15;;
78205;SDS011;67480;48.920;12.880;2023-07-13T10:00:55;5.18;;;3.45;;
78205;SDS011;67480;48.920;12.880;2023-07-13T10:03:30;3.03;;;1.52;;
78205;SDS011;67480;48.920;12.880;2023-07-13T10:06:12;2.20;;;1.50;;
78205;SDS011;67480;48.920;12.880;2023-07-13T10:08:40;3.78;;;2.17;;
78205;SDS011;67480;48.920;12.880;2023-07-13T10:11:09;3.47;;;1.55;;
78205;SDS011;67480;48.920;12.880;2023-07-13T10:13:37;3.22;;;1.58;;
78205;SDS011;67480;48.920;12.880;2023-07-13T10:16:10;2.45;;;1.80;;
78205;SDS011;67480;48.920;12.880;2023-07-13T10:18:39;3.25;;;1.70;;
78205;SDS011;67480;48.920;12.880;2023-07-13T10:21:13;2.13;;;1.55;;
78205;SDS011;67480;48.920;12.880;2023-07-13T10:23:55;3.08;;;1.55;;
78205;SDS011;67480;48.920;12.880;2023-07-13T10:26:33;3.72;;;1.55;;
78205;SDS011;67480;48.920;12.880;2023-07-13T10:29:03;3.03;;;1.30;;
78205;SDS011;67480;48.920;12.880;2023-07-13T10:31:34;2.33;;;1.23;;
78205;SDS011;67480;48.920;12.880;2023-07-13T10:34:02;4.25;;;1.83;;
78205;SDS011;67480;48.920;12.880;2023-07-13T10:36:29;4.30;;;1.70;;
78205;SDS011;67480;48.920;12.880;2023-07-13T10:39:00;5.22;;;1.50;;
78205;SDS011;67480;48.920;12.880;2023-07-13T10:41:28;5.68;;;1.60;;
78205;SDS011;67480;48.920;12.880;2023-07-13T10:43:59;2.55;;;1.35;;
78205;SDS011;67480;48.920;12.880;2023-07-13T10:46:26;2.05;;;1.50;;
78205;SDS011;67480;48.920;12.880;2023-07-13T10:49:00;3.92;;;1.30;;
78205;SDS011;67480;48.920;12.880;2023-07-13T10:51:29;2.08;;;1.33;;
78205;SDS011;67480;48.920;12.880;2023-07-13T10:54:10;2.53;;;1.27;;
78205;SDS011;67480;48.920;12.880;2023-07-13T10:59:38;3.70;;;1.70;;
78205;SDS011;67480;48.920;12.880;2023-07-13T11:04:41;2.38;;;1.60;;
78205;SDS011;67480;48.920;12.880;2023-07-13T11:07:18;2.90;;;1.17;;
78205;SDS011;67480;48.920;12.880;2023-07-13T11:09:44;1.98;;;1.27;;
78205;SDS011;67480;48.920;12.880;2023-07-13T11:19:57;2.53;;;1.40;;
78205;SDS011;67480;48.920;12.880;2023-07-13T11:22:43;1.77;;;1.27;;
78205;SDS011;67480;48.920;12.880;2023-07-13T11:27:45;5.72;;;1.27;;
78205;SDS011;67480;48.920;12.880;2023-07-13T11:32:49;2.55;;;1.45;;
78205;SDS011;67480;48.920;12.880;2023-07-13T11:35:19;5.85;;;1.40;;
78205;SDS011;67480;48.920;12.880;2023-07-13T11:37:51;2.63;;;1.45;;
78205;SDS011;67480;48.920;12.880;2023-07-13T11:40:17;2.47;;;1.27;;
78205;SDS011;67480;48.920;12.880;2023-07-13T11:42:42;2.42;;;1.52;;
78205;SDS011;67480;48.920;12.880;2023-07-13T11:45:21;3.35;;;1.30;;
78205;SDS011;67480;48.920;12.880;2023-07-13T11:47:48;1.70;;;1.38;;
78205;SDS011;67480;48.920;12.880;2023-07-13T11:50:22;2.50;;;1.40;;
78205;SDS011;67480;48.920;12.880;2023-07-13T11:52:49;4.40;;;1.40;;
78205;SDS011;67480;48.920;12.880;2023-07-13T11:55:19;2.65;;;1.35;;
78205;SDS011;67480;48.920;12.880;2023-07-13T11:57:50;2.38;;;1.45;;
78205;SDS011;67480;48.920;12.880;2023-07-13T12:00:23;2.60;;;1.10;;
78205;SDS011;67480;48.920;12.880;2023-07-13T12:02:53;1.27;;;1.10;;
78205;SDS011;67480;48.920;12.880;2023-07-13T12:05:20;1.40;;;1.20;;
78205;SDS011;67480;48.920;12.880;2023-07-13T12:07:46;3.92;;;1.35;;
78205;SDS011;67480;48.920;12.880;2023-07-13T12:15:42;2.33;;;1.20;;
78205;SDS011;67480;48.920;12.880;2023-07-13T12:18:14;5.70;;;1.38;;
78205;SDS011;67480;48.920;12.880;2023-07-13T12:20:43;1.25;;;0.93;;
78205;SDS011;67480;48.920;12.880;2023-07-13T12:23:21;1.80;;;1.20;;
78205;SDS011;67480;48.920;12.880;2023-07-13T12:25:51;2.47;;;1.30;;
78205;SDS011;67480;48.920;12.880;2023-07-13T12:28:30;2.10;;;1.05;;
78205;SDS011;67480;48.920;12.880;2023-07-13T12:31:02;2.72;;;1.15;;
78205;SDS011;67480;48.920;12.880;2023-07-13T12:33:30;2.97;;;1.20;;
78205;SDS011;67480;48.920;12.880;2023-07-13T12:35:57;1.75;;;1.00;;
78205;SDS011;67480;48.920;12.880;2023-07-13T12:38:25;1.33;;;1.10;;
78205;SDS011;67480;48.920;12.880;2023-07-13T12:40:51;5.15;;;1.30;;
78205;SDS011;67480;48.920;12.880;2023-07-13T12:43:17;3.08;;;1.40;;
78205;SDS011;67480;48.920;12.880;2023-07-13T12:45:56;4.43;;;1.20;;
78205;SDS011;67480;48.920;12.880;2023-07-13T12:51:08;4.53;;;1.45;;
78205;SDS011;67480;48.920;12.880;2023-07-13T12:53:38;2.60;;;1.30;;
78205;SDS011;67480;48.920;12.880;2023-07-13T12:56:08;2.83;;;1.20;;
78205;SDS011;67480;48.920;12.880;2023-07-13T12:58:43;2.90;;;1.38;;
78205;SDS011;67480;48.920;12.880;2023-07-13T13:01:11;3.88;;;1.08;;
78205;SDS011;67480;48.920;12.880;2023-07-13T13:03:39;3.13;;;1.27;;
78205;SDS011;67480;48.920;12.880;2023-07-13T13:08:43;2.77;;;1.07;;
78205;SDS011;67480;48.920;12.880;2023-07-13T13:11:08;3.95;;;1.30;;
78205;SDS011;67480;48.920;12.880;2023-07-13T13:13:34;11.80;;;1.48;;
78205;SDS011;67480;48.920;12.880;2023-07-13T13:16:11;1.33;;;1.05;;
78205;SDS011;67480;48.920;12.880;2023-07-13T13:18:39;3.08;;;1.10;;
78205;SDS011;67480;48.920;12.880;2023-07-13T13:21:05;2.50;;;1.15;;
78205;SDS011;67480;48.920;12.880;2023-07-13T13:23:30;2.17;;;1.10;;
78205;SDS011;67480;48.920;12.880;2023-07-13T13:25:55;1.38;;;1.00;;
78205;SDS011;67480;48.920;12.880;2023-07-13T13:28:21;2.28;;;1.30;;
78205;SDS011;67480;48.920;12.880;2023-07-13T13:30:50;2.63;;;1.40;;
78205;SDS011;67480;48.920;12.880;2023-07-13T13:33:17;4.78;;;1.10;;
78205;SDS011;67480;48.920;12.880;2023-07-13T13:35:44;2.90;;;1.15;;
78205;SDS011;67480;48.920;12.880;2023-07-13T13:38:20;3.17;;;1.08;;
78205;SDS011;67480;48.920;12.880;2023-07-13T13:40:50;5.18;;;1.30;;
78205;SDS011;67480;48.920;12.880;2023-07-13T13:43:16;1.50;;;1.00;;
78205;SDS011;67480;48.920;12.880;2023-07-13T13:45:43;3.95;;;1.15;;
78205;SDS011;67480;48.920;12.880;2023-07-13T13:48:17;5.10;;;1.20;;
78205;SDS011;67480;48.920;12.880;2023-07-13T13:53:10;2.83;;;1.23;;
78205;SDS011;67480;48.920;12.880;2023-07-13T13:55:37;4.10;;;1.38;;
78205;SDS011;67480;48.920;12.880;2023-07-13T13:58:02;1.50;;;1.17;;
78205;SDS011;67480;48.920;12.880;2023-07-13T14:00:28;1.92;;;1.00;;
78205;SDS011;67480;48.920;12.880;2023-07-13T14:02:54;4.38;;;1.60;;
78205;SDS011;67480;48.920;12.880;2023-07-13T14:05:22;2.70;;;1.30;;
78205;SDS011;67480;48.920;12.880;2023-07-13T14:07:53;1.13;;;1.00;;
78205;SDS011;67480;48.920;12.880;2023-07-13T14:10:19;2.13;;;1.10;;
78205;SDS011;67480;48.920;12.880;2023-07-13T14:12:46;2.63;;;1.30;;
78205;SDS011;67480;48.920;12.880;2023-07-13T14:15:15;2.85;;;1.40;;
78205;SDS011;67480;48.920;12.880;2023-07-13T14:17:45;4.15;;;1.20;;
78205;SDS011;67480;48.920;12.880;2023-07-13T14:20:14;1.75;;;1.40;;
78205;SDS011;67480;48.920;12.880;2023-07-13T14:22:40;1.65;;;1.13;;
78205;SDS011;67480;48.920;12.880;2023-07-13T14:25:09;3.25;;;1.20;;
78205;SDS011;67480;48.920;12.880;2023-07-13T14:27:40;2.53;;;1.15;;
78205;SDS011;67480;48.920;12.880;2023-07-13T14:30:13;2.15;;;1.48;;
78205;SDS011;67480;48.920;12.880;2023-07-13T14:32:40;2.75;;;1.38;;
78205;SDS011;67480;48.920;12.880;2023-07-13T14:35:06;2.10;;;1.42;;
78205;SDS011;67480;48.920;12.880;2023-07-13T14:37:42;1.25;;;1.00;;
78205;SDS011;67480;48.920;12.880;2023-07-13T14:40:19;2.03;;;1.10;;
78205;SDS011;67480;48.920;12.880;2023-07-13T14:42:51;2.55;;;1.30;;
78205;SDS011;67480;48.920;12.880;2023-07-13T14:45:18;2.10;;;1.15;;
78205;SDS011;67480;48.920;12.880;2023-07-13T14:47:45;3.78;;;1.58;;
78205;SDS011;67480;48.920;12.880;2023-07-13T14:50:13;3.28;;;1.17;;
78205;SDS011;67480;48.920;12.880;2023-07-13T14:52:38;5.25;;;1.20;;
78205;SDS011;67480;48.920;12.880;2023-07-13T14:55:07;2.78;;;1.02;;
78205;SDS011;67480;48.920;12.880;2023-07-13T14:57:37;2.78;;;1.45;;
78205;SDS011;67480;48.920;12.880;2023-07-13T15:00:04;1.35;;;1.23;;
78205;SDS011;67480;48.920;12.880;2023-07-13T15:02:33;2.65;;;1.50;;
78205;SDS011;67480;48.920;12.880;2023-07-13T15:05:00;2.05;;;1.58;;
78205;SDS011;67480;48.920;12.880;2023-07-13T15:07:26;1.63;;;1.25;;
78205;SDS011;67480;48.920;12.880;2023-07-13T15:09:51;1.77;;;1.40;;
78205;SDS011;67480;48.920;12.880;2023-07-13T15:12:17;1.33;;;1.25;;
78205;SDS011;67480;48.920;12.880;2023-07-13T15:14:42;2.13;;;1.40;;
78205;SDS011;67480;48.920;12.880;2023-07-13T15:17:53;1.65;;;1.10;;
78205;SDS011;67480;48.920;12.880;2023-07-13T15:20:06;2.80;;;1.20;;
78205;SDS011;67480;48.920;12.880;2023-07-13T15:22:42;2.10;;;1.08;;
78205;SDS011;67480;48.920;12.880;2023-07-13T15:25:26;2.65;;;1.30;;
78205;SDS011;67480;48.920;12.880;2023-07-13T15:27:53;2.50;;;1.65;;
78205;SDS011;67480;48.920;12.880;2023-07-13T15:30:20;1.83;;;1.17;;
78205;SDS011;67480;48.920;12.880;2023-07-13T15:32:46;2.63;;;1.40;;
78205;SDS011;67480;48.920;12.880;2023-07-13T15:35:19;6.63;;;2.40;;
78205;SDS011;67480;48.920;12.880;2023-07-13T15:37:47;2.53;;;1.92;;
78205;SDS011;67480;48.920;12.880;2023-07-13T15:40:13;4.78;;;1.58;;
78205;SDS011;67480;48.920;12.880;2023-07-13T15:42:40;1.80;;;1.02;;
78205;SDS011;67480;48.920;12.880;2023-07-13T15:45:23;3.60;;;1.98;;
78205;SDS011;67480;48.920;12.880;2023-07-13T15:47:53;1.73;;;1.30;;
78205;SDS011;67480;48.920;12.880;2023-07-13T15:50:19;5.65;;;1.90;;
78205;SDS011;67480;48.920;12.880;2023-07-13T15:52:48;2.55;;;1.02;;
78205;SDS011;67480;48.920;12.880;2023-07-13T15:55:19;3.83;;;0.98;;
78205;SDS011;67480;48.920;12.880;2023-07-13T15:57:48;2.75;;;1.40;;
78205;SDS011;67480;48.920;12.880;2023-07-13T16:00:23;1.30;;;1.20;;
78205;SDS011;67480;48.920;12.880;2023-07-13T16:02:51;1.70;;;1.00;;
78205;SDS011;67480;48.920;12.880;2023-07-13T16:05:17;3.83;;;1.27;;
78205;SDS011;67480;48.920;12.880;2023-07-13T16:07:47;2.00;;;1.25;;
78205;SDS011;67480;48.920;12.880;2023-07-13T16:10:19;2.30;;;1.15;;
78205;SDS011;67480;48.920;12.880;2023-07-13T16:12:47;2.65;;;0.93;;
78205;SDS011;67480;48.920;12.880;2023-07-13T16:15:13;1.50;;;1.20;;
78205;SDS011;67480;48.920;12.880;2023-07-13T16:17:42;1.60;;;1.13;;
78205;SDS011;67480;48.920;12.880;2023-07-13T16:20:08;4.47;;;1.40;;
78205;SDS011;67480;48.920;12.880;2023-07-13T16:22:38;1.48;;;1.13;;
78205;SDS011;67480;48.920;12.880;2023-07-13T16:25:25;2.13;;;1.52;;
78205;SDS011;67480;48.920;12.880;2023-07-13T16:27:52;2.63;;;1.63;;
78205;SDS011;67480;48.920;12.880;2023-07-13T16:30:20;2.67;;;1.92;;
78205;SDS011;67480;48.920;12.880;2023-07-13T16:32:48;4.05;;;1.45;;
78205;SDS011;67480;48.920;12.880;2023-07-13T16:35:16;6.07;;;5.10;;
78205;SDS011;67480;48.920;12.880;2023-07-13T16:37:51;3.45;;;1.75;;
78205;SDS011;67480;48.920;12.880;2023-07-13T16:40:28;3.00;;;1.02;;
78205;SDS011;67480;48.920;12.880;2023-07-13T16:42:56;2.92;;;1.50;;
78205;SDS011;67480;48.920;12.880;2023-07-13T16:45:23;4.28;;;1.70;;
78205;SDS011;67480;48.920;12.880;2023-07-13T16:47:52;2.50;;;1.10;;
78205;SDS011;67480;48.920;12.880;2023-07-13T16:50:22;1.42;;;1.10;;
78205;SDS011;67480;48.920;12.880;2023-07-13T16:52:50;3.13;;;1.23;;
78205;SDS011;67480;48.920;12.880;2023-07-13T16:55:18;1.58;;;1.13;;
78205;SDS011;67480;48.920;12.880;2023-07-13T16:57:52;1.83;;;1.05;;
78205;SDS011;67480;48.920;12.880;2023-07-13T17:00:27;1.33;;;1.23;;
78205;SDS011;67480;48.920;12.880;2023-07-13T17:02:54;1.83;;;1.38;;
78205;SDS011;67480;48.920;12.880;2023-07-13T17:05:28;2.85;;;1.52;;
78205;SDS011;67480;48.920;12.880;2023-07-13T17:07:55;5.32;;;1.52;;
78205;SDS011;67480;48.920;12.880;2023-07-13T17:10:22;2.17;;;1.15;;
78205;SDS011;67480;48.920;12.880;2023-07-13T17:12:51;2.60;;;1.15;;
78205;SDS011;67480;48.920;12.880;2023-07-13T17:15:18;4.00;;;1.40;;
78205;SDS011;67480;48.920;12.880;2023-07-13T17:17:45;7.35;;;2.83;;
78205;SDS011;67480;48.920;12.880;2023-07-13T17:20:17;4.13;;;2.38;;
78205;SDS011;67480;48.920;12.880;2023-07-13T17:22:47;2.67;;;1.50;;
78205;SDS011;67480;48.920;12.880;2023-07-13T17:25:13;3.28;;;1.10;;
78205;SDS011;67480;48.920;12.880;2023-07-13T17:27:39;3.28;;;1.45;;
78205;SDS011;67480;48.920;12.880;2023-07-13T17:30:05;1.70;;;1.13;;
78205;SDS011;67480;48.920;12.880;2023-07-13T17:32:37;4.35;;;0.95;;
78205;SDS011;67480;48.920;12.880;2023-07-13T17:35:09;1.80;;;1.17;;
78205;SDS011;67480;48.920;12.880;2023-07-13T17:37:41;4.15;;;1.25;;
78205;SDS011;67480;48.920;12.880;2023-07-13T17:40:13;3.45;;;1.40;;
78205;SDS011;67480;48.920;12.880;2023-07-13T17:42:45;1.85;;;1.35;;
78205;SDS011;67480;48.920;12.880;2023-07-13T17:45:11;5.90;;;1.80;;
78205;SDS011;67480;48.920;12.880;2023-07-13T17:47:42;3.67;;;2.08;;
78205;SDS011;67480;48.920;12.880;2023-07-13T17:50:12;2.45;;;1.30;;
78205;SDS011;67480;48.920;12.880;2023-07-13T17:52:39;3.08;;;1.52;;
78205;SDS011;67480;48.920;12.880;2023-07-13T17:55:14;6.93;;;1.60;;
78205;SDS011;67480;48.920;12.880;2023-07-13T17:57:43;3.00;;;1.40;;
78205;SDS011;67480;48.920;12.880;2023-07-13T18:00:13;1.70;;;1.30;;
78205;SDS011;67480;48.920;12.880;2023-07-13T18:03:00;2.25;;;1.40;;
78205;SDS011;67480;48.920;12.880;2023-07-13T18:05:30;3.42;;;1.40;;
78205;SDS011;67480;48.920;12.880;2023-07-13T18:07:55;4.15;;;1.58;;
78205;SDS011;67480;48.920;12.880;2023-07-13T18:10:21;2.97;;;1.50;;
78205;SDS011;67480;48.920;12.880;2023-07-13T18:12:50;8.93;;;1.85;;
78205;SDS011;67480;48.920;12.880;2023-07-13T18:15:17;2.33;;;1.40;;
78205;SDS011;67480;48.920;12.880;2023-07-13T18:17:48;1.92;;;1.27;;
78205;SDS011;67480;48.920;12.880;2023-07-13T18:20:16;2.90;;;1.30;;
78205;SDS011;67480;48.920;12.880;2023-07-13T18:22:44;2.05;;;1.50;;
78205;SDS011;67480;48.920;12.880;2023-07-13T18:25:16;1.90;;;1.30;;
78205;SDS011;67480;48.920;12.880;2023-07-13T18:27:44;1.27;;;1.08;;
78205;SDS011;67480;48.920;12.880;2023-07-13T18:30:12;1.52;;;1.40;;
78205;SDS011;67480;48.920;12.880;2023-07-13T18:32:39;3.17;;;1.13;;
78205;SDS011;67480;48.920;12.880;2023-07-13T18:35:13;3.20;;;1.50;;
78205;SDS011;67480;48.920;12.880;2023-07-13T18:37:40;2.35;;;1.40;;
78205;SDS011;67480;48.920;12.880;2023-07-13T18:40:12;4.25;;;1.70;;
78205;SDS011;67480;48.920;12.880;2023-07-13T18:42:41;5.57;;;3.10;;
78205;SDS011;67480;48.920;12.880;2023-07-13T18:45:10;3.72;;;1.90;;
78205;SDS011;67480;48.920;12.880;2023-07-13T18:47:39;7.50;;;4.80;;
78205;SDS011;67480;48.920;12.880;2023-07-13T18:50:16;3.88;;;3.38;;
78205;SDS011;67480;48.920;12.880;2023-07-13T18:52:45;3.65;;;2.38;;
78205;SDS011;67480;48.920;12.880;2023-07-13T18:55:20;5.28;;;2.70;;
78205;SDS011;67480;48.920;12.880;2023-07-13T18:57:47;2.08;;;1.40;;
78205;SDS011;67480;48.920;12.880;2023-07-13T19:00:14;5.90;;;3.88;;
78205;SDS011;67480;48.920;12.880;2023-07-13T19:02:39;4.25;;;2.45;;
78205;SDS011;67480;48.920;12.880;2023-07-13T19:05:18;3.33;;;1.48;;
78205;SDS011;67480;48.920;12.880;2023-07-13T19:07:45;4.63;;;2.65;;
78205;SDS011;67480;48.920;12.880;2023-07-13T19:10:12;4.85;;;3.67;;
78205;SDS011;67480;48.920;12.880;2023-07-13T19:12:45;6.18;;;5.40;;
78205;SDS011;67480;48.920;12.880;2023-07-13T19:15:22;5.65;;;5.10;;
78205;SDS011;67480;48.920;12.880;2023-07-13T19:17:58;2.80;;;1.88;;
78205;SDS011;67480;48.920;12.880;2023-07-13T19:20:25;4.88;;;4.00;;
78205;SDS011;67480;48.920;12.880;2023-07-13T19:23:00;3.28;;;1.88;;
78205;SDS011;67480;48.920;12.880;2023-07-13T19:25:29;2.20;;;1.63;;
78205;SDS011;67480;48.920;12.880;2023-07-13T19:28:38;4.28;;;2.00;;
78205;SDS011;67480;48.920;12.880;2023-07-13T19:31:14;4.97;;;2.40;;
78205;SDS011;67480;48.920;12.880;2023-07-13T19:33:43;2.60;;;1.85;;
78205;SDS011;67480;48.920;12.880;2023-07-13T19:36:12;2.33;;;1.80;;
78205;SDS011;67480;48.920;12.880;2023-07-13T19:38:39;3.60;;;1.70;;
78205;SDS011;67480;48.920;12.880;2023-07-13T19:41:05;2.35;;;1.80;;
78205;SDS011;67480;48.920;12.880;2023-07-13T19:43:31;3.88;;;1.90;;
78205;SDS011;67480;48.920;12.880;2023-07-13T19:45:56;1.75;;;1.30;;
78205;SDS011;67480;48.920;12.880;2023-07-13T19:48:21;5.75;;;2.40;;
78205;SDS011;67480;48.920;12.880;2023-07-13T19:50:47;3.75;;;1.88;;
78205;SDS011;67480;48.920;12.880;2023-07-13T19:53:17;4.18;;;2.13;;
78205;SDS011;67480;48.920;12.880;2023-07-13T19:55:45;2.33;;;1.65;;
78205;SDS011;67480;48.920;12.880;2023-07-13T19:58:11;5.57;;;2.25;;
78205;SDS011;67480;48.920;12.880;2023-07-13T20:00:37;3.70;;;2.10;;
78205;SDS011;67480;48.920;12.880;2023-07-13T20:03:03;3.50;;;1.83;;
78205;SDS011;67480;48.920;12.880;2023-07-13T20:05:29;2.95;;;2.40;;
78205;SDS011;67480;48.920;12.880;2023-07-13T20:07:55;3.00;;;1.80;;
78205;SDS011;67480;48.920;12.880;2023-07-13T20:10:26;6.38;;;2.67;;
78205;SDS011;67480;48.920;12.880;2023-07-13T20:12:57;2.80;;;1.85;;
78205;SDS011;67480;48.920;12.880;2023-07-13T20:15:27;2.90;;;1.88;;
78205;SDS011;67480;48.920;12.880;2023-07-13T20:17:55;2.35;;;1.50;;
78205;SDS011;67480;48.920;12.880;2023-07-13T20:20:32;4.15;;;2.00;;
78205;SDS011;67480;48.920;12.880;2023-07-13T20:23:00;3.08;;;2.58;;
78205;SDS011;67480;48.920;12.880;2023-07-13T20:27:53;2.42;;;1.67;;
78205;SDS011;67480;48.920;12.880;2023-07-13T20:30:19;4.47;;;1.98;;
78205;SDS011;67480;48.920;12.880;2023-07-13T20:32:45;1.95;;;1.67;;
78205;SDS011;67480;48.920;12.880;2023-07-13T20:37:48;3.47;;;1.60;;
78205;SDS011;67480;48.920;12.880;2023-07-13T20:40:18;4.72;;;1.85;;
78205;SDS011;67480;48.920;12.880;2023-07-13T20:42:45;11.50;;;1.90;;
78205;SDS011;67480;48.920;12.880;2023-07-13T20:45:12;2.53;;;2.05;;
78205;SDS011;67480;48.920;12.880;2023-07-13T20:47:38;4.70;;;2.92;;
78205;SDS011;67480;48.920;12.880;2023-07-13T20:52:44;3.58;;;2.03;;
78205;SDS011;67480;48.920;12.880;2023-07-13T20:55:13;5.15;;;1.63;;
78205;SDS011;67480;48.920;12.880;2023-07-13T20:57:41;5.30;;;1.55;;
78205;SDS011;67480;48.920;12.880;2023-07-13T21:00:07;2.55;;;1.40;;
78205;SDS011;67480;48.920;12.880;2023-07-13T21:02:33;1.80;;;1.50;;
78205;SDS011;67480;48.920;12.880;2023-07-13T21:05:05;3.33;;;1.55;;
78205;SDS011;67480;48.920;12.880;2023-07-13T21:07:37;2.90;;;1.55;;
78205;SDS011;67480;48.920;12.880;2023-07-13T21:10:11;3.15;;;1.50;;
78205;SDS011;67480;48.920;12.880;2023-07-13T21:12:38;3.83;;;1.42;;
78205;SDS011;67480;48.920;12.880;2023-07-13T21:15:04;2.70;;;1.45;;
78205;SDS011;67480;48.920;12.880;2023-07-13T21:17:30;1.75;;;1.27;;
78205;SDS011;67480;48.920;12.880;2023-07-13T21:19:58;3.85;;;1.67;;
78205;SDS011;67480;48.920;12.880;2023-07-13T21:22:23;2.55;;;1.40;;
78205;SDS011;67480;48.920;12.880;2023-07-13T21:24:48;2.72;;;1.38;;
78205;SDS011;67480;48.920;12.880;2023-07-13T21:27:14;2.30;;;1.48;;
78205;SDS011;67480;48.920;12.880;2023-07-13T21:29:39;2.13;;;1.40;;
78205;SDS011;67480;48.920;12.880;2023-07-13T21:32:05;2.58;;;1.65;;
78205;SDS011;67480;48.920;12.880;2023-07-13T21:34:39;4.70;;;1.60;;
78205;SDS011;67480;48.920;12.880;2023-07-13T21:37:04;4.18;;;1.33;;
78205;SDS011;67480;48.920;12.880;2023-07-13T21:39:33;1.83;;;1.70;;
78205;SDS011;67480;48.920;12.880;2023-07-13T21:41:58;3.92;;;1.70;;
78205;SDS011;67480;48.920;12.880;2023-07-13T21:44:27;4.38;;;2.20;;
78205;SDS011;67480;48.920;12.880;2023-07-13T21:46:54;1.90;;;1.55;;
78205;SDS011;67480;48.920;12.880;2023-07-13T21:49:21;2.10;;;1.90;;
78205;SDS011;67480;48.920;12.880;2023-07-13T21:51:46;2.70;;;1.55;;
78205;SDS011;67480;48.920;12.880;2023-07-13T21:54:14;4.05;;;1.60;;
78205;SDS011;67480;48.920;12.880;2023-07-13T21:56:41;2.20;;;1.60;;
78205;SDS011;67480;48.920;12.880;2023-07-13T21:59:40;5.35;;;1.40;;
78205;SDS011;67480;48.920;12.880;2023-07-13T22:01:59;6.78;;;1.60;;
78205;SDS011;67480;48.920;12.880;2023-07-13T22:04:26;2.67;;;1.50;;
78205;SDS011;67480;48.920;12.880;2023-07-13T22:06:54;5.97;;;1.80;;
78205;SDS011;67480;48.920;12.880;2023-07-13T22:09:20;3.35;;;1.60;;
78205;SDS011;67480;48.920;12.880;2023-07-13T22:11:46;5.03;;;2.25;;
78205;SDS011;67480;48.920;12.880;2023-07-13T22:14:11;2.85;;;1.70;;
78205;SDS011;67480;48.920;12.880;2023-07-13T22:16:37;5.22;;;1.55;;
78205;SDS011;67480;48.920;12.880;2023-07-13T22:19:12;2.25;;;1.50;;